Time;durP1;ratioP1;P1;durP2;ratioP2;P2;SDS_P1;SDS_P2;PMS_P1;PMS_P2;Temp;Humidity;BMP_temperature;BMP_pressure;BME280_temperature;BME280_humidity;BME280_pressure;Samples;Min_cycle;Max_cycle;Signal;HPM_P1;HPM_P2
2022/10/19 05:55:13;;;;;;;;;;;9.20;99.90;;;;;;6190448;23;19999;-79
2022/10/19 05:57:38;;;;;;;;;;;9.20;99.90;;;;;;6165299;23;19916;-79
2022/10/19 06:00:04;;;;;;;;;;;9.10;99.90;;;;;;6166025;23;19912;-76
2022/10/19 06:02:30;;;;;;;;;;;9.20;99.90;;;;;;6165796;23;19958;-78
2022/10/19 06:04:56;;;;;;;;;;;9.20;99.90;;;;;;6165854;23;19912;-75
2022/10/19 06:07:21;;;;;;;;;;;9.30;99.90;;;;;;6190469;23;20296;-74
2022/10/19 06:09:47;;;;;;;;;;;9.40;99.90;;;;;;6165732;23;19923;-78
2022/10/19 06:12:36;;;;;;;;;;;9.30;99.90;;;;;;6165742;23;19919;-76
2022/10/19 06:15:02;;;;;;;;;;;9.30;99.90;;;;;;6189363;23;19915;-78
2022/10/19 06:17:27;;;;;;;;;;;9.50;99.90;;;;;;6165283;23;19987;-76
2022/10/19 06:19:53;;;;;;;;;;;9.50;99.90;;;;;;6165574;23;20315;-72
2022/10/19 06:22:38;;;;;;;;;;;9.50;99.90;;;;;;6165540;23;20273;-74
2022/10/19 06:25:03;;;;;;;;;;;9.50;99.90;;;;;;6165063;23;19942;-70
2022/10/19 06:27:37;;;;;;;;;;;9.50;99.90;;;;;;6165653;23;20277;-70
2022/10/19 06:30:27;;;;;;;;;;;9.50;99.90;;;;;;6216734;23;19977;-70
2022/10/19 06:32:52;;;;;;;;;;;9.60;99.90;;;;;;6189925;23;20374;-70
2022/10/19 06:46:26;;;;;;;;;;;9.60;99.90;;;;;;6184662;23;19916;-71
2022/10/19 06:49:01;;;;;;;;;;;9.70;99.90;;;;;;6135428;23;19970;-71
2022/10/19 06:51:28;;;;;;;;;;;9.80;99.90;;;;;;6160487;23;19916;-71
2022/10/19 06:53:54;;;;;;;;;;;9.90;99.90;;;;;;6135565;23;19970;-71
2022/10/19 06:56:19;;;;;;;;;;;10.00;99.90;;;;;;6186651;23;19916;-72
2022/10/19 06:58:45;;;;;;;;;;;10.00;99.90;;;;;;6160218;23;19917;-72
2022/10/19 07:01:12;;;;;;;;;;;10.10;99.90;;;;;;6135749;23;19922;-73
2022/10/19 07:03:39;;;;;;;;;;;10.20;99.90;;;;;;6135649;23;19923;-71
2022/10/19 07:06:06;;;;;;;;;;;10.30;99.90;;;;;;6135480;23;20308;-71
2022/10/19 07:08:32;;;;;;;;;;;10.30;99.90;;;;;;6135305;23;19916;-71
2022/10/19 07:10:59;;;;;;;;;;;10.30;99.90;;;;;;6159563;23;19916;-72
2022/10/19 07:13:25;;;;;;;;;;;10.30;99.90;;;;;;6135103;23;19916;-71
2022/10/19 07:16:04;;;;;;;;;;;10.30;99.90;;;;;;6160129;23;19916;-72
2022/10/19 07:18:29;;;;;;;;;;;10.40;99.90;;;;;;6160207;23;19916;-72
2022/10/19 07:20:56;;;;;;;;;;;10.40;99.90;;;;;;6135580;23;19916;-70
2022/10/19 07:23:22;;;;;;;;;;;10.40;99.90;;;;;;6159930;23;19923;-71
2022/10/19 07:25:48;;;;;;;;;;;10.50;99.90;;;;;;6158264;23;19920;-71
2022/10/19 07:28:18;;;;;;;;;;;10.50;99.90;;;;;;6133405;23;19963;-74
2022/10/19 07:30:44;;;;;;;;;;;10.50;99.90;;;;;;6184150;23;19919;-71
2022/10/19 07:33:10;;;;;;;;;;;10.60;99.90;;;;;;6134257;23;19916;-69
2022/10/19 07:35:35;;;;;;;;;;;10.70;99.90;;;;;;6158227;23;19912;-74
2022/10/19 07:38:01;;;;;;;;;;;10.70;99.90;;;;;;6134669;23;19916;-73
2022/10/19 07:40:27;;;;;;;;;;;10.80;99.90;;;;;;6159974;23;20319;-71
2022/10/19 07:42:52;;;;;;;;;;;10.80;99.90;;;;;;6135582;23;19920;-73
2022/10/19 07:45:18;;;;;;;;;;;10.90;99.90;;;;;;6159612;23;19923;-72
2022/10/19 07:47:44;;;;;;;;;;;11.10;99.90;;;;;;6159991;23;19991;-72
2022/10/19 07:50:09;;;;;;;;;;;11.10;99.90;;;;;;6160031;23;19917;-72
2022/10/19 07:52:35;;;;;;;;;;;11.20;99.90;;;;;;6160037;23;20315;-73
2022/10/19 07:55:01;;;;;;;;;;;11.20;99.90;;;;;;6159709;23;19943;-72
2022/10/19 07:57:26;;;;;;;;;;;11.30;99.90;;;;;;6160128;23;20038;-72
2022/10/19 07:59:52;;;;;;;;;;;11.30;99.90;;;;;;6135393;23;19920;-73
2022/10/19 08:02:18;;;;;;;;;;;11.40;99.90;;;;;;6160178;23;19916;-76
2022/10/19 08:04:44;;;;;;;;;;;11.40;99.90;;;;;;6135418;23;19917;-72
2022/10/19 08:07:10;;;;;;;;;;;11.40;99.90;;;;;;6160075;23;19943;-73
2022/10/19 08:09:35;;;;;;;;;;;11.50;99.90;;;;;;6135135;23;19912;-72
2022/10/19 08:12:01;;;;;;;;;;;11.60;99.90;;;;;;6159986;23;19912;-72
2022/10/19 08:14:35;;;;;;;;;;;11.70;99.90;;;;;;6134803;23;19919;-73
2022/10/19 08:17:10;;;;;;;;;;;11.70;99.90;;;;;;6134476;23;19920;-73
2022/10/19 08:19:43;;;;;;;;;;;11.70;99.90;;;;;;6159921;23;19923;-73
2022/10/19 08:22:11;;;;;;;;;;;11.80;99.90;;;;;;6135158;23;19912;-73
2022/10/19 08:24:45;;;;;;;;;;;11.70;99.90;;;;;;6160113;23;20304;-73
2022/10/19 08:27:13;;;;;;;;;;;11.80;99.90;;;;;;6159484;23;19919;-72
2022/10/19 08:29:41;;;;;;;;;;;11.80;99.90;;;;;;6159117;23;20219;-72
2022/10/19 08:32:12;;;;;;;;;;;11.90;99.90;;;;;;6159300;23;19964;-72
2022/10/19 08:34:38;;;;;;;;;;;11.90;99.90;;;;;;6134563;23;19959;-73
2022/10/19 08:37:04;;;;;;;;;;;11.90;99.90;;;;;;6158555;23;19916;-72
2022/10/19 08:39:33;;;;;;;;;;;11.90;99.90;;;;;;6134728;23;20403;-73
2022/10/19 08:42:13;;;;;;;;;;;11.90;99.90;;;;;;6160131;23;19919;-72
2022/10/19 08:44:57;;;;;;;;;;;11.90;99.90;;;;;;6136145;23;19944;-73
2022/10/19 08:47:43;;;;;;;;;;;12.00;99.90;;;;;;6132010;23;20319;-72
2022/10/19 08:50:38;;;;;;;;;;;12.00;99.90;;;;;;6131731;23;19996;-73
2022/10/19 08:53:06;;;;;;;;;;;12.10;99.90;;;;;;6126990;23;19943;-74
2022/10/19 08:55:37;;;;;;;;;;;12.10;99.90;;;;;;6107935;23;19949;-72
2022/10/19 08:58:09;;;;;;;;;;;12.10;99.90;;;;;;6107527;23;19956;-73
2022/10/19 09:00:38;;;;;;;;;;;12.30;99.90;;;;;;6131429;23;20391;-73
2022/10/19 09:03:18;;;;;;;;;;;12.20;99.90;;;;;;6131855;23;19913;-72
2022/10/19 09:05:45;;;;;;;;;;;12.20;99.90;;;;;;6107491;23;20039;-74
2022/10/19 09:08:11;;;;;;;;;;;12.20;99.90;;;;;;6107214;23;19923;-73
2022/10/19 09:10:41;;;;;;;;;;;12.10;99.90;;;;;;6107306;23;19983;-73
2022/10/19 09:13:16;;;;;;;;;;;12.00;99.90;;;;;;6107537;23;19963;-72
2022/10/19 09:15:46;;;;;;;;;;;12.00;99.90;;;;;;6131837;23;19917;-72
2022/10/19 09:18:16;;;;;;;;;;;12.10;99.90;;;;;;6107078;23;19917;-72
2022/10/19 09:20:43;;;;;;;;;;;12.10;99.90;;;;;;6107777;23;20343;-71
2022/10/19 09:23:38;;;;;;;;;;;12.20;99.90;;;;;;6131881;23;19939;-72
2022/10/19 09:26:09;;;;;;;;;;;12.20;99.90;;;;;;6130700;23;19924;-72
2022/10/19 09:28:40;;;;;;;;;;;12.20;99.90;;;;;;6107340;23;19917;-73
2022/10/19 09:31:09;;;;;;;;;;;12.10;99.90;;;;;;6107557;23;20413;-73
2022/10/19 09:33:37;;;;;;;;;;;12.10;99.90;;;;;;6131747;23;19916;-72
2022/10/19 09:36:04;;;;;;;;;;;12.20;99.90;;;;;;6106953;23;20286;-73
2022/10/19 09:38:30;;;;;;;;;;;12.20;99.90;;;;;;6131635;23;20271;-71
2022/10/19 09:40:57;;;;;;;;;;;12.40;99.90;;;;;;6107402;23;19923;-75
2022/10/19 09:43:27;;;;;;;;;;;12.30;99.90;;;;;;6107678;23;20236;-72
2022/10/19 09:46:09;;;;;;;;;;;12.40;99.90;;;;;;6142610;23;19923;-73
2022/10/19 09:48:43;;;;;;;;;;;12.50;99.90;;;;;;6160574;23;19916;-73
2022/10/19 09:51:13;;;;;;;;;;;12.60;99.90;;;;;;6136414;23;19912;-72
2022/10/19 09:53:43;;;;;;;;;;;12.70;99.90;;;;;;6137107;23;19916;-71
2022/10/19 09:56:22;;;;;;;;;;;12.70;99.90;;;;;;6136344;23;19916;-76
2022/10/19 09:59:04;;;;;;;;;;;12.60;99.90;;;;;;6136294;23;20238;-74
2022/10/19 10:01:56;;;;;;;;;;;12.40;99.90;;;;;;6160072;23;19916;-74
2022/10/19 10:04:40;;;;;;;;;;;;;;;;;;;;;
2022/10/19 10:07:12;;;;;;;;;;;12.50;99.90;;;;;;6159991;23;19916;-76
2022/10/19 10:09:40;;;;;;;;;;;12.60;99.90;;;;;;6160345;23;19912;-73
2022/10/19 10:12:07;;;;;;;;;;;12.50;99.90;;;;;;6160975;23;19912;-72
2022/10/19 10:14:34;;;;;;;;;;;12.40;99.90;;;;;;6136131;23;19916;-76
2022/10/19 10:17:03;;;;;;;;;;;12.40;99.90;;;;;;6160982;23;19916;-73
2022/10/19 10:19:30;;;;;;;;;;;12.50;99.90;;;;;;6160593;23;20292;-73
2022/10/19 10:21:59;;;;;;;;;;;12.70;99.90;;;;;;6136452;23;19916;-76
2022/10/19 10:24:32;;;;;;;;;;;12.80;99.90;;;;;;6160778;23;19923;-73
2022/10/19 10:27:01;;;;;;;;;;;12.90;99.90;;;;;;6160498;23;19916;-75
2022/10/19 10:29:28;;;;;;;;;;;13.00;99.90;;;;;;6159610;23;19987;-75
2022/10/19 10:31:57;;;;;;;;;;;13.00;99.90;;;;;;6160408;23;19924;-74
2022/10/19 10:34:43;;;;;;;;;;;13.00;99.90;;;;;;6135634;23;19926;-72
2022/10/19 10:37:23;;;;;;;;;;;13.10;99.90;;;;;;6159154;23;19935;-74
2022/10/19 10:39:52;;;;;;;;;;;13.10;99.90;;;;;;6160750;23;20291;-75
2022/10/19 10:42:21;;;;;;;;;;;13.20;99.90;;;;;;6161086;23;19916;-74
2022/10/19 10:44:51;;;;;;;;;;;13.10;99.90;;;;;;6160906;23;19917;-72
2022/10/19 10:47:25;;;;;;;;;;;13.00;99.90;;;;;;6159502;23;19922;-76
2022/10/19 10:50:05;;;;;;;;;;;12.90;99.90;;;;;;6135575;23;19920;-77
2022/10/19 10:52:56;;;;;;;;;;;13.00;99.90;;;;;;6135221;23;19912;-76
2022/10/19 10:55:28;;;;;;;;;;;13.00;99.90;;;;;;6133366;23;19966;-76
2022/10/19 10:58:10;;;;;;;;;;;13.20;99.90;;;;;;6135428;23;19916;-76
2022/10/19 11:00:39;;;;;;;;;;;13.20;99.90;;;;;;6136187;23;19912;-76
2022/10/19 11:03:13;;;;;;;;;;;13.20;99.90;;;;;;6135658;23;20319;-73
2022/10/19 11:05:44;;;;;;;;;;;13.10;99.90;;;;;;6135792;23;19912;-73
2022/10/19 11:08:22;;;;;;;;;;;13.30;99.90;;;;;;6160512;23;19912;-75
2022/10/19 11:11:03;;;;;;;;;;;13.30;99.90;;;;;;6160158;23;19948;-73
2022/10/19 11:13:28;;;;;;;;;;;13.40;99.90;;;;;;6135885;23;19912;-73
2022/10/19 11:15:57;;;;;;;;;;;13.40;99.90;;;;;;6160298;23;19987;-74
2022/10/19 11:18:33;;;;;;;;;;;13.20;99.90;;;;;;6160836;23;19959;-75
2022/10/19 11:21:17;;;;;;;;;;;13.00;99.90;;;;;;6160357;23;19983;-73
2022/10/19 11:24:05;;;;;;;;;;;13.00;99.90;;;;;;6160659;23;19920;-72
2022/10/19 11:26:57;;;;;;;;;;;12.90;99.90;;;;;;6135528;23;19912;-75
2022/10/19 11:29:27;;;;;;;;;;;12.90;99.90;;;;;;6143756;23;19913;-73
2022/10/19 11:31:53;;;;;;;;;;;13.10;99.90;;;;;;6135649;23;19969;-73
2022/10/19 11:34:31;;;;;;;;;;;13.20;99.90;;;;;;6135523;23;20320;-74
2022/10/19 11:37:01;;;;;;;;;;;13.20;99.90;;;;;;6159793;23;19979;-75
2022/10/19 11:39:36;;;;;;;;;;;13.30;99.90;;;;;;6135507;23;19916;-75
2022/10/19 11:42:01;;;;;;;;;;;13.40;99.90;;;;;;6160186;23;20027;-74
2022/10/19 11:44:30;;;;;;;;;;;13.50;99.90;;;;;;6135220;23;19943;-75
2022/10/19 11:46:55;;;;;;;;;;;13.50;99.90;;;;;;6135098;23;19912;-73
2022/10/19 11:49:33;;;;;;;;;;;13.50;99.90;;;;;;6135953;23;19923;-73
2022/10/19 11:52:04;;;;;;;;;;;13.40;99.90;;;;;;6136016;23;19912;-74
2022/10/19 11:54:34;;;;;;;;;;;13.40;99.90;;;;;;6136035;23;19919;-75
2022/10/19 11:57:09;;;;;;;;;;;13.30;99.90;;;;;;6135491;23;19920;-75
2022/10/19 11:59:34;;;;;;;;;;;13.50;99.90;;;;;;6135874;23;19917;-73
2022/10/19 12:02:19;;;;;;;;;;;13.40;99.90;;;;;;6135547;23;19913;-75
2022/10/19 12:05:11;;;;;;;;;;;13.40;99.90;;;;;;6136242;23;19912;-75
2022/10/19 12:07:55;;;;;;;;;;;13.40;99.90;;;;;;6153411;23;19912;-73
2022/10/19 12:10:24;;;;;;;;;;;13.40;99.90;;;;;;6135928;23;19944;-76
2022/10/19 12:12:52;;;;;;;;;;;13.50;99.90;;;;;;6136008;23;19913;-75
2022/10/19 12:15:25;;;;;;;;;;;13.30;99.90;;;;;;6162164;23;20299;-74
2022/10/19 12:17:51;;;;;;;;;;;13.30;99.90;;;;;;6162481;23;19916;-75
2022/10/19 12:20:26;;;;;;;;;;;13.40;99.90;;;;;;6137749;23;19912;-76
2022/10/19 12:22:52;;;;;;;;;;;13.50;99.90;;;;;;6161879;23;19920;-73
2022/10/19 12:25:18;;;;;;;;;;;13.50;99.90;;;;;;6137701;23;19955;-77
2022/10/19 12:27:46;;;;;;;;;;;13.80;99.90;;;;;;6137538;23;20395;-74
2022/10/19 12:30:13;;;;;;;;;;;13.80;99.90;;;;;;6161677;23;19916;-75
2022/10/19 12:32:43;;;;;;;;;;;13.70;99.90;;;;;;6137477;23;20377;-75
2022/10/19 12:35:21;;;;;;;;;;;13.70;99.90;;;;;;6137123;23;20390;-73
2022/10/19 12:37:51;;;;;;;;;;;13.60;99.90;;;;;;6137570;23;19913;-74
2022/10/19 12:40:23;;;;;;;;;;;13.60;99.90;;;;;;6136956;23;19987;-76
2022/10/19 12:42:50;;;;;;;;;;;13.40;99.90;;;;;;6137178;23;19912;-76
2022/10/19 12:45:17;;;;;;;;;;;13.50;99.90;;;;;;6137121;23;19919;-74
2022/10/19 12:48:18;;;;;;;;;;;13.20;99.90;;;;;;6136559;23;19923;-73
2022/10/19 12:50:46;;;;;;;;;;;13.10;99.90;;;;;;5992382;23;19945;-74
2022/10/19 12:53:22;;;;;;;;;;;13.20;99.90;;;;;;6134120;23;19912;-77
2022/10/19 12:55:57;;;;;;;;;;;13.20;99.90;;;;;;6137381;23;19927;-74
2022/10/19 12:58:23;;;;;;;;;;;13.30;99.90;;;;;;6137325;23;19916;-75
2022/10/19 13:00:59;;;;;;;;;;;13.40;99.90;;;;;;6137161;23;19912;-74
2022/10/19 13:03:28;;;;;;;;;;;13.50;99.90;;;;;;6162532;23;19991;-74
2022/10/19 13:05:55;;;;;;;;;;;13.50;99.90;;;;;;6138047;23;19920;-74
2022/10/19 13:08:29;;;;;;;;;;;13.40;99.90;;;;;;6142083;23;19904;-75
2022/10/19 13:11:03;;;;;;;;;;;13.30;99.90;;;;;;6189570;23;19905;-76
2022/10/19 13:13:49;;;;;;;;;;;13.30;99.90;;;;;;6165117;23;19965;-75
2022/10/19 13:16:27;;;;;;;;;;;13.20;99.90;;;;;;6164722;23;19947;-76
2022/10/19 13:19:11;;;;;;;;;;;13.20;99.90;;;;;;6172526;23;19927;-74
2022/10/19 13:21:55;;;;;;;;;;;13.10;99.90;;;;;;6136521;23;19939;-74
2022/10/19 13:24:24;;;;;;;;;;;13.10;99.90;;;;;;6160874;23;19912;-73
2022/10/19 13:27:02;;;;;;;;;;;13.10;99.90;;;;;;6136343;23;19919;-71
2022/10/19 13:29:47;;;;;;;;;;;13.10;99.90;;;;;;6160869;23;19912;-76
2022/10/19 13:32:28;;;;;;;;;;;13.00;99.90;;;;;;6161599;23;19971;-75
2022/10/19 13:34:54;;;;;;;;;;;13.10;99.90;;;;;;6136453;23;20315;-74
2022/10/19 13:37:20;;;;;;;;;;;13.20;99.90;;;;;;6161535;23;19922;-76
2022/10/19 13:39:51;;;;;;;;;;;13.30;99.90;;;;;;6134935;23;19917;-75
2022/10/19 13:42:29;;;;;;;;;;;13.30;99.90;;;;;;6135792;23;19912;-75
2022/10/19 13:44:55;;;;;;;;;;;13.10;99.90;;;;;;6136465;23;19912;-75
2022/10/19 13:47:24;;;;;;;;;;;13.10;99.90;;;;;;6136264;23;19935;-74
2022/10/19 13:50:06;;;;;;;;;;;12.90;99.90;;;;;;6136847;23;19923;-74
2022/10/19 13:52:41;;;;;;;;;;;12.90;99.90;;;;;;6160965;23;19919;-76
2022/10/19 13:55:10;;;;;;;;;;;12.90;99.90;;;;;;6137202;23;19939;-76
2022/10/19 13:57:59;;;;;;;;;;;12.90;99.90;;;;;;6136507;23;19916;-74
2022/10/19 14:00:34;;;;;;;;;;;12.80;99.90;;;;;;6136728;23;20230;-74
2022/10/19 14:03:19;;;;;;;;;;;12.70;99.90;;;;;;6135995;23;20335;-76
2022/10/19 14:06:03;;;;;;;;;;;12.60;99.90;;;;;;6136510;23;19913;-74
2022/10/19 14:08:38;;;;;;;;;;;12.60;99.90;;;;;;6136287;23;19919;-76
2022/10/19 14:11:13;;;;;;;;;;;12.70;99.90;;;;;;6136491;23;19946;-75
2022/10/19 14:13:42;;;;;;;;;;;12.70;99.90;;;;;;6136379;23;20326;-75
2022/10/19 14:16:19;;;;;;;;;;;12.80;99.90;;;;;;6136216;23;19936;-75
2022/10/19 14:18:52;;;;;;;;;;;12.80;99.90;;;;;;6136825;23;20014;-75
2022/10/19 14:21:27;;;;;;;;;;;12.90;99.90;;;;;;6160926;23;19983;-76
2022/10/19 14:23:58;;;;;;;;;;;12.80;99.90;;;;;;6136524;23;19919;-75
2022/10/19 14:26:27;;;;;;;;;;;12.80;99.90;;;;;;6136378;23;19912;-74
2022/10/19 14:28:59;;;;;;;;;;;12.80;99.90;;;;;;6136401;23;19919;-76
2022/10/19 14:31:35;;;;;;;;;;;12.80;99.90;;;;;;6135635;23;19912;-76
2022/10/19 14:34:02;;;;;;;;;;;12.80;99.90;;;;;;6136379;23;19912;-76
2022/10/19 14:36:41;;;;;;;;;;;12.80;99.90;;;;;;6135744;23;20265;-75
2022/10/19 14:39:20;;;;;;;;;;;12.60;99.90;;;;;;6136349;23;19920;-74
2022/10/19 14:41:46;;;;;;;;;;;12.60;99.90;;;;;;6136279;23;20205;-75
2022/10/19 14:44:33;;;;;;;;;;;12.50;99.90;;;;;;6134907;23;19919;-74
2022/10/19 14:47:06;;;;;;;;;;;12.50;99.90;;;;;;6136443;23;20038;-75
2022/10/19 14:52:35;;;;;;;;;;;12.40;99.90;;;;;;6154242;23;19912;-75
2022/10/19 14:55:08;;;;;;;;;;;12.30;99.90;;;;;;6135840;23;19920;-75
2022/10/19 14:57:35;;;;;;;;;;;12.40;99.90;;;;;;6135788;23;20286;-74
2022/10/19 15:00:03;;;;;;;;;;;12.40;99.90;;;;;;6136068;23;19912;-75
2022/10/19 15:02:31;;;;;;;;;;;12.30;99.90;;;;;;6135886;23;19983;-74
2022/10/19 15:04:58;;;;;;;;;;;12.30;99.90;;;;;;6136080;23;19912;-74
2022/10/19 15:07:44;;;;;;;;;;;12.30;99.90;;;;;;6135823;23;19912;-76
2022/10/19 15:10:18;;;;;;;;;;;12.20;99.90;;;;;;6159045;23;20307;-74
2022/10/19 15:12:44;;;;;;;;;;;12.20;99.90;;;;;;6160434;23;20235;-75
2022/10/19 15:15:16;;;;;;;;;;;12.20;99.90;;;;;;6160284;23;19987;-74
2022/10/19 15:17:50;;;;;;;;;;;12.20;99.90;;;;;;6136362;23;19991;-75
2022/10/19 15:20:22;;;;;;;;;;;12.10;99.90;;;;;;6158831;23;20378;-74
2022/10/19 15:22:48;;;;;;;;;;;12.10;99.90;;;;;;6160718;23;19916;-76
2022/10/19 15:25:13;;;;;;;;;;;12.10;99.90;;;;;;6135746;23;19935;-75
2022/10/19 15:27:45;;;;;;;;;;;12.00;99.90;;;;;;6136235;23;19987;-75
2022/10/19 15:30:17;;;;;;;;;;;12.00;99.90;;;;;;6135480;23;19912;-74
2022/10/19 15:32:48;;;;;;;;;;;11.90;99.90;;;;;;6135629;23;19916;-74
2022/10/19 15:35:17;;;;;;;;;;;11.90;99.90;;;;;;6135862;23;19991;-74
2022/10/19 15:37:43;;;;;;;;;;;11.90;99.90;;;;;;6135406;23;19917;-75
2022/10/19 15:40:22;;;;;;;;;;;11.70;99.90;;;;;;6135561;23;19916;-76
2022/10/19 15:42:47;;;;;;;;;;;11.70;99.90;;;;;;6112751;23;19916;-75
2022/10/19 15:45:26;;;;;;;;;;;11.70;99.90;;;;;;6136757;23;19992;-78
2022/10/19 15:48:11;;;;;;;;;;;11.60;99.90;;;;;;6162021;23;19919;-77
2022/10/19 15:50:38;;;;;;;;;;;11.50;99.90;;;;;;6138145;23;19967;-76
2022/10/19 15:53:04;;;;;;;;;;;11.70;99.90;;;;;;6137551;23;19916;-77
2022/10/19 15:58:21;;;;;;;;;;;11.50;99.90;;;;;;6150422;23;19924;-74
2022/10/19 16:00:51;;;;;;;;;;;11.40;99.90;;;;;;6137481;23;19916;-81
2022/10/19 16:04:02;;;;;;;;;;;;;;;;;;;;;
2022/10/19 16:06:35;;;;;;;;;;;11.20;99.90;;;;;;6162024;23;19988;-77
2022/10/19 16:09:43;;;;;;;;;;;11.20;99.90;;;;;;6156382;23;20234;-76
2022/10/19 16:12:17;;;;;;;;;;;11.10;99.90;;;;;;6138148;23;19959;-78
2022/10/19 16:14:52;;;;;;;;;;;11.10;99.90;;;;;;6137811;23;19912;-78
2022/10/19 16:24:42;;;;;;;;;;;10.80;99.90;;;;;;5968539;23;19996;-77
2022/10/19 16:30:18;;;;;;;;;;;10.80;99.90;;;;;;5977988;23;19985;-76
2022/10/19 16:32:48;;;;;;;;;;;10.70;99.90;;;;;;6016068;23;19949;-76
2022/10/19 16:35:16;;;;;;;;;;;10.70;99.90;;;;;;6070439;23;19951;-76
2022/10/19 16:37:51;;;;;;;;;;;10.60;99.90;;;;;;6077949;23;19921;-77
2022/10/19 16:40:16;;;;;;;;;;;10.60;99.90;;;;;;6077707;23;19988;-77
2022/10/19 16:42:42;;;;;;;;;;;10.60;99.90;;;;;;6077559;23;19967;-75
2022/10/19 16:45:08;;;;;;;;;;;10.50;99.90;;;;;;6077695;23;19913;-79
2022/10/19 16:47:34;;;;;;;;;;;10.40;99.90;;;;;;6077286;23;20351;-73
2022/10/19 17:04:38;;;;;;;;;;;;;;;;;;;;;
2022/10/19 17:38:48;;;;;;;;;;;9.90;99.90;;;;;;5905047;24;19926;-76
2022/10/19 17:41:14;;;;;;;;;;;9.80;99.90;;;;;;5930353;24;19915;-76
2022/10/19 17:43:43;;;;;;;;;;;9.90;99.90;;;;;;5930347;24;19989;-77
2022/10/19 17:46:13;;;;;;;;;;;9.80;99.90;;;;;;5956434;23;19949;-77
2022/10/19 17:48:40;;;;;;;;;;;9.80;99.90;;;;;;6134738;23;19923;-76
2022/10/19 17:55:09;;;;;;;;;;;10.10;99.90;;;;;;6080236;23;19923;-78
2022/10/19 17:58:09;;;;;;;;;;;9.90;99.90;;;;;;6137000;23;19909;-78
2022/10/19 18:04:14;;;;;;;;;;;9.80;99.90;;;;;;6107655;23;20290;-78
2022/10/19 18:06:40;;;;;;;;;;;9.60;99.90;;;;;;6074661;23;19913;-75
2022/10/19 18:09:12;;;;;;;;;;;9.70;99.90;;;;;;6130276;23;20334;-77
2022/10/19 18:15:09;;;;;;;;;;;9.60;99.90;;;;;;6159730;23;19912;-82
2022/10/19 18:20:56;;;;;;;;;;;9.10;99.90;;;;;;6185516;23;19950;-75
2022/10/19 18:23:23;;;;;;;;;;;9.50;99.90;;;;;;6159466;23;19916;-74
2022/10/19 18:25:49;;;;;;;;;;;9.60;99.90;;;;;;6134773;23;19919;-75
2022/10/19 18:28:53;;;;;;;;;;;;;;;;;;;;;
2022/10/19 18:31:53;;;;;;;;;;;;;;;;;;;;;
2022/10/19 18:53:10;;;;;;;;;;;9.40;99.90;;;;;;6184637;23;19944;-73
2022/10/19 18:55:35;;;;;;;;;;;9.90;99.90;;;;;;6159767;23;19917;-72
2022/10/19 18:58:01;;;;;;;;;;;9.60;99.90;;;;;;6135063;23;19966;-72
2022/10/19 19:00:27;;;;;;;;;;;9.50;99.90;;;;;;6159919;23;19919;-72
2022/10/19 19:02:53;;;;;;;;;;;9.50;99.90;;;;;;6160522;23;19917;-72
2022/10/19 19:05:19;;;;;;;;;;;9.80;99.90;;;;;;6135286;23;19912;-72
2022/10/19 19:07:45;;;;;;;;;;;9.50;99.90;;;;;;6159922;23;20363;-72
2022/10/19 19:10:13;;;;;;;;;;;9.50;99.90;;;;;;6135241;23;19983;-71
2022/10/19 19:12:39;;;;;;;;;;;9.90;99.90;;;;;;6135291;23;19912;-72
2022/10/19 19:15:07;;;;;;;;;;;9.50;99.90;;;;;;6160104;23;19919;-72
2022/10/19 19:17:33;;;;;;;;;;;9.50;99.90;;;;;;6111268;23;20219;-72
2022/10/19 19:19:59;;;;;;;;;;;9.40;99.90;;;;;;6159958;23;19982;-73
2022/10/19 19:22:31;;;;;;;;;;;9.40;99.90;;;;;;6159294;23;19948;-73
2022/10/19 19:25:00;;;;;;;;;;;9.60;99.90;;;;;;6136671;23;19912;-70
2022/10/19 19:27:26;;;;;;;;;;;9.40;99.90;;;;;;6136104;23;19983;-71
2022/10/19 19:29:55;;;;;;;;;;;9.40;99.90;;;;;;6136607;23;19912;-71
2022/10/19 19:32:21;;;;;;;;;;;9.40;99.90;;;;;;6157527;23;19923;-72
2022/10/19 19:34:49;;;;;;;;;;;9.30;99.90;;;;;;6188020;23;19909;-72
2022/10/19 19:37:15;;;;;;;;;;;9.30;99.90;;;;;;6163482;23;19904;-72
2022/10/19 19:39:43;;;;;;;;;;;9.30;99.90;;;;;;6163108;23;19968;-71
2022/10/19 19:42:10;;;;;;;;;;;9.20;99.90;;;;;;6160989;23;19952;-73
2022/10/19 19:44:35;;;;;;;;;;;9.30;99.90;;;;;;6135498;23;19912;-72
2022/10/19 19:47:01;;;;;;;;;;;9.20;99.90;;;;;;6134892;23;19919;-72
2022/10/19 19:49:26;;;;;;;;;;;9.20;99.90;;;;;;6159782;23;20204;-73
2022/10/19 19:51:52;;;;;;;;;;;9.20;99.90;;;;;;6134970;23;19916;-73
2022/10/19 19:54:21;;;;;;;;;;;9.20;99.90;;;;;;6159412;23;19975;-73
2022/10/19 19:56:51;;;;;;;;;;;9.10;99.90;;;;;;6134957;23;19994;-72
2022/10/19 19:59:17;;;;;;;;;;;9.20;99.90;;;;;;6185958;23;20239;-73
2022/10/19 20:01:42;;;;;;;;;;;9.10;99.90;;;;;;6134746;23;19991;-73
2022/10/19 20:04:08;;;;;;;;;;;9.20;99.90;;;;;;6135111;23;20291;-73
2022/10/19 20:06:35;;;;;;;;;;;9.20;99.90;;;;;;6159360;23;19987;-72
2022/10/19 20:09:01;;;;;;;;;;;9.20;99.90;;;;;;6159202;23;19919;-73
2022/10/19 20:11:27;;;;;;;;;;;9.10;99.90;;;;;;6134933;23;20211;-73
2022/10/19 20:13:53;;;;;;;;;;;9.10;99.90;;;;;;6159242;23;19935;-73
2022/10/19 20:16:20;;;;;;;;;;;9.10;99.90;;;;;;6135112;23;20323;-74
2022/10/19 20:18:50;;;;;;;;;;;9.00;99.90;;;;;;6135241;23;19991;-74
2022/10/19 20:21:16;;;;;;;;;;;9.10;99.90;;;;;;6135036;23;19912;-72
2022/10/19 20:23:46;;;;;;;;;;;9.10;99.90;;;;;;6134868;23;19919;-72
2022/10/19 20:26:15;;;;;;;;;;;9.20;99.90;;;;;;6134829;23;19916;-71
2022/10/19 20:28:41;;;;;;;;;;;9.10;99.90;;;;;;6134929;23;19916;-72
2022/10/19 20:31:07;;;;;;;;;;;9.10;99.90;;;;;;6158865;23;19922;-73
2022/10/19 20:33:34;;;;;;;;;;;9.10;99.90;;;;;;6134988;23;19916;-73
2022/10/19 20:36:05;;;;;;;;;;;9.10;99.90;;;;;;6135526;23;19971;-74
2022/10/19 20:38:31;;;;;;;;;;;9.00;99.90;;;;;;6136274;23;19913;-74
2022/10/19 20:41:01;;;;;;;;;;;9.00;99.90;;;;;;6160680;23;20262;-74
2022/10/19 20:43:26;;;;;;;;;;;9.00;99.90;;;;;;6136817;23;20303;-73
2022/10/19 20:45:52;;;;;;;;;;;9.00;99.90;;;;;;6136492;23;19912;-74
2022/10/19 20:48:18;;;;;;;;;;;9.00;99.90;;;;;;6135983;23;19916;-73
2022/10/19 20:50:46;;;;;;;;;;;9.00;99.90;;;;;;6135708;23;19916;-73
2022/10/19 20:53:11;;;;;;;;;;;8.90;99.90;;;;;;6135110;23;20024;-73
2022/10/19 20:55:39;;;;;;;;;;;8.90;99.90;;;;;;6136417;23;20000;-73
2022/10/19 20:58:05;;;;;;;;;;;9.00;99.90;;;;;;6135897;23;19920;-74
2022/10/19 21:00:31;;;;;;;;;;;9.00;99.90;;;;;;6135326;23;19912;-73
2022/10/19 21:02:58;;;;;;;;;;;9.00;99.90;;;;;;6135986;23;19912;-74
2022/10/19 21:05:23;;;;;;;;;;;9.00;99.90;;;;;;6136035;23;19912;-73
2022/10/19 21:07:49;;;;;;;;;;;8.90;99.90;;;;;;6161248;23;19962;-73
2022/10/19 21:10:14;;;;;;;;;;;8.90;99.90;;;;;;6136188;23;19958;-72
2022/10/19 21:12:40;;;;;;;;;;;8.90;99.90;;;;;;6187211;23;20282;-73
2022/10/19 21:15:14;;;;;;;;;;;9.10;99.90;;;;;;6135721;23;19913;-74
2022/10/19 21:17:42;;;;;;;;;;;8.80;99.90;;;;;;6136342;23;19991;-74
2022/10/19 21:20:11;;;;;;;;;;;8.80;99.90;;;;;;6160568;23;20330;-73
2022/10/19 21:22:38;;;;;;;;;;;8.90;99.90;;;;;;6136119;23;19967;-73
2022/10/19 21:25:07;;;;;;;;;;;8.80;99.90;;;;;;6136651;23;19916;-74
2022/10/19 21:27:33;;;;;;;;;;;8.80;99.90;;;;;;6160792;23;19920;-74
2022/10/19 21:29:59;;;;;;;;;;;8.90;99.90;;;;;;6160623;23;20314;-74
2022/10/19 21:32:25;;;;;;;;;;;8.80;99.90;;;;;;6135766;23;19987;-73
2022/10/19 21:34:50;;;;;;;;;;;8.80;99.90;;;;;;6160619;23;19919;-72
